sensor_id;sensor_type;location;lat;lon;timestamp;temperature;humidity
16767;DHT22;8501;49.926;8.404;2023-04-23T00:02:26;13.80;99.90
16767;DHT22;8501;49.926;8.404;2023-04-23T00:04:53;13.70;99.90
16767;DHT22;8501;49.926;8.404;2023-04-23T00:07:22;13.80;99.90
16767;DHT22;8501;49.926;8.404;2023-04-23T00:09:49;13.80;99.90
16767;DHT22;8501;49.926;8.404;2023-04-23T00:12:17;13.70;99.90
16767;DHT22;8501;49.926;8.404;2023-04-23T00:14:42;13.70;99.90
16767;DHT22;8501;49.926;8.404;2023-04-23T00:17:08;13.80;99.90
16767;DHT22;8501;49.926;8.404;2023-04-23T00:19:33;13.70;99.90
16767;DHT22;8501;49.926;8.404;2023-04-23T00:21:59;13.70;99.90
16767;DHT22;8501;49.926;8.404;2023-04-23T00:24:24;13.70;99.90
16767;DHT22;8501;49.926;8.404;2023-04-23T00:26:50;13.70;99.90
16767;DHT22;8501;49.926;8.404;2023-04-23T00:29:17;13.70;99.90
16767;DHT22;8501;49.926;8.404;2023-04-23T00:31:42;13.70;99.90
16767;DHT22;8501;49.926;8.404;2023-04-23T00:34:08;13.70;99.90
16767;DHT22;8501;49.926;8.404;2023-04-23T00:36:33;13.70;99.90
16767;DHT22;8501;49.926;8.404;2023-04-23T00:38:59;13.70;99.90
16767;DHT22;8501;49.926;8.404;2023-04-23T00:41:25;13.60;99.90
16767;DHT22;8501;49.926;8.404;2023-04-23T00:43:52;13.70;99.90
16767;DHT22;8501;49.926;8.404;2023-04-23T00:46:18;13.60;99.90
16767;DHT22;8501;49.926;8.404;2023-04-23T00:48:44;13.60;99.90
16767;DHT22;8501;49.926;8.404;2023-04-23T00:51:10;13.60;99.90
16767;DHT22;8501;49.926;8.404;2023-04-23T00:53:36;13.70;99.90
16767;DHT22;8501;49.926;8.404;2023-04-23T00:56:03;13.70;99.90
16767;DHT22;8501;49.926;8.404;2023-04-23T00:58:30;13.60;99.90
16767;DHT22;8501;49.926;8.404;2023-04-23T01:00:56;13.60;99.90
16767;DHT22;8501;49.926;8.404;2023-04-23T01:03:22;13.60;99.90
16767;DHT22;8501;49.926;8.404;2023-04-23T01:05:49;13.60;99.90
16767;DHT22;8501;49.926;8.404;2023-04-23T01:08:15;13.60;99.90
16767;DHT22;8501;49.926;8.404;2023-04-23T01:10:43;13.60;99.90
16767;DHT22;8501;49.926;8.404;2023-04-23T01:13:09;13.60;99.90
16767;DHT22;8501;49.926;8.404;2023-04-23T01:15:36;13.50;99.90
16767;DHT22;8501;49.926;8.404;2023-04-23T01:18:01;13.60;99.90
16767;DHT22;8501;49.926;8.404;2023-04-23T01:20:29;13.60;99.90
16767;DHT22;8501;49.926;8.404;2023-04-23T01:22:54;13.60;99.90
16767;DHT22;8501;49.926;8.404;2023-04-23T01:25:20;13.50;99.90
16767;DHT22;8501;49.926;8.404;2023-04-23T01:27:46;13.50;99.90
16767;DHT22;8501;49.926;8.404;2023-04-23T01:30:13;13.60;99.90
16767;DHT22;8501;49.926;8.404;2023-04-23T01:32:39;13.50;99.90
16767;DHT22;8501;49.926;8.404;2023-04-23T01:35:05;13.50;99.90
16767;DHT22;8501;49.926;8.404;2023-04-23T01:37:32;13.60;99.90
16767;DHT22;8501;49.926;8.404;2023-04-23T01:39:58;13.50;99.90
16767;DHT22;8501;49.926;8.404;2023-04-23T01:42:24;13.60;99.90
16767;DHT22;8501;49.926;8.404;2023-04-23T01:44:49;13.50;99.90
16767;DHT22;8501;49.926;8.404;2023-04-23T01:47:15;13.50;99.90
16767;DHT22;8501;49.926;8.404;2023-04-23T01:49:41;13.50;99.90
16767;DHT22;8501;49.926;8.404;2023-04-23T01:52:06;13.60;99.90
16767;DHT22;8501;49.926;8.404;2023-04-23T01:54:32;13.50;99.90
16767;DHT22;8501;49.926;8.404;2023-04-23T01:56:57;13.50;99.90
16767;DHT22;8501;49.926;8.404;2023-04-23T01:59:23;13.50;99.90
16767;DHT22;8501;49.926;8.404;2023-04-23T02:01:49;13.50;99.90
16767;DHT22;8501;49.926;8.404;2023-04-23T02:04:15;13.60;99.90
16767;DHT22;8501;49.926;8.404;2023-04-23T02:06:43;13.50;99.90
16767;DHT22;8501;49.926;8.404;2023-04-23T02:09:10;13.50;99.90
16767;DHT22;8501;49.926;8.404;2023-04-23T02:11:36;13.50;99.90
16767;DHT22;8501;49.926;8.404;2023-04-23T02:14:02;13.50;99.90
16767;DHT22;8501;49.926;8.404;2023-04-23T02:16:28;13.50;99.90
16767;DHT22;8501;49.926;8.404;2023-04-23T02:18:54;13.50;99.90
16767;DHT22;8501;49.926;8.404;2023-04-23T02:21:23;13.50;99.90
16767;DHT22;8501;49.926;8.404;2023-04-23T02:23:49;13.40;99.90
16767;DHT22;8501;49.926;8.404;2023-04-23T02:26:15;13.40;99.90
16767;DHT22;8501;49.926;8.404;2023-04-23T02:28:40;13.30;99.90
16767;DHT22;8501;49.926;8.404;2023-04-23T02:31:06;13.30;99.90
16767;DHT22;8501;49.926;8.404;2023-04-23T02:33:31;13.30;99.90
16767;DHT22;8501;49.926;8.404;2023-04-23T02:35:57;13.40;99.90
16767;DHT22;8501;49.926;8.404;2023-04-23T02:38:23;13.40;99.90
16767;DHT22;8501;49.926;8.404;2023-04-23T02:40:48;13.40;99.90
16767;DHT22;8501;49.926;8.404;2023-04-23T02:43:14;13.30;99.90
16767;DHT22;8501;49.926;8.404;2023-04-23T02:45:39;13.30;99.90
16767;DHT22;8501;49.926;8.404;2023-04-23T02:48:05;13.30;99.90
16767;DHT22;8501;49.926;8.404;2023-04-23T02:50:30;13.30;99.90
16767;DHT22;8501;49.926;8.404;2023-04-23T02:52:56;13.30;99.90
16767;DHT22;8501;49.926;8.404;2023-04-23T02:55:21;13.30;99.90
16767;DHT22;8501;49.926;8.404;2023-04-23T02:57:49;13.30;99.90
16767;DHT22;8501;49.926;8.404;2023-04-23T03:00:15;13.30;99.90
16767;DHT22;8501;49.926;8.404;2023-04-23T03:02:41;13.20;99.90
16767;DHT22;8501;49.926;8.404;2023-04-23T03:05:07;13.20;99.90
16767;DHT22;8501;49.926;8.404;2023-04-23T03:07:32;13.20;99.90
16767;DHT22;8501;49.926;8.404;2023-04-23T03:09:58;13.20;99.90
16767;DHT22;8501;49.926;8.404;2023-04-23T03:12:23;13.10;99.90
16767;DHT22;8501;49.926;8.404;2023-04-23T03:14:49;13.10;99.90
16767;DHT22;8501;49.926;8.404;2023-04-23T03:17:14;13.20;99.90
16767;DHT22;8501;49.926;8.404;2023-04-23T03:19:40;13.20;99.90
16767;DHT22;8501;49.926;8.404;2023-04-23T03:22:05;13.20;99.90
16767;DHT22;8501;49.926;8.404;2023-04-23T03:24:34;13.20;99.90
16767;DHT22;8501;49.926;8.404;2023-04-23T03:27:00;13.10;99.90
16767;DHT22;8501;49.926;8.404;2023-04-23T03:29:25;13.10;99.90
16767;DHT22;8501;49.926;8.404;2023-04-23T03:31:51;13.10;99.90
16767;DHT22;8501;49.926;8.404;2023-04-23T03:34:16;13.10;99.90
16767;DHT22;8501;49.926;8.404;2023-04-23T03:36:42;13.10;99.90
16767;DHT22;8501;49.926;8.404;2023-04-23T03:39:09;13.10;99.90
16767;DHT22;8501;49.926;8.404;2023-04-23T03:41:35;13.10;99.90
16767;DHT22;8501;49.926;8.404;2023-04-23T03:44:00;13.10;99.90
16767;DHT22;8501;49.926;8.404;2023-04-23T03:46:26;13.10;99.90
16767;DHT22;8501;49.926;8.404;2023-04-23T03:48:51;13.00;99.90
16767;DHT22;8501;49.926;8.404;2023-04-23T03:51:17;13.00;99.90
16767;DHT22;8501;49.926;8.404;2023-04-23T03:53:43;13.00;99.90
16767;DHT22;8501;49.926;8.404;2023-04-23T03:56:10;13.00;99.90
16767;DHT22;8501;49.926;8.404;2023-04-23T03:58:35;13.00;99.90
16767;DHT22;8501;49.926;8.404;2023-04-23T04:01:01;13.00;99.90
16767;DHT22;8501;49.926;8.404;2023-04-23T04:03:26;13.00;99.90
16767;DHT22;8501;49.926;8.404;2023-04-23T04:05:53;13.00;99.90
16767;DHT22;8501;49.926;8.404;2023-04-23T04:08:18;13.00;99.90
16767;DHT22;8501;49.926;8.404;2023-04-23T04:10:44;13.00;99.90
16767;DHT22;8501;49.926;8.404;2023-04-23T04:13:10;13.00;99.90
16767;DHT22;8501;49.926;8.404;2023-04-23T04:15:35;12.90;99.90
16767;DHT22;8501;49.926;8.404;2023-04-23T04:18:01;13.00;99.90
16767;DHT22;8501;49.926;8.404;2023-04-23T04:20:26;13.00;99.90
16767;DHT22;8501;49.926;8.404;2023-04-23T04:22:55;13.00;99.90
16767;DHT22;8501;49.926;8.404;2023-04-23T04:25:21;12.90;99.90
16767;DHT22;8501;49.926;8.404;2023-04-23T04:27:47;12.90;99.90
16767;DHT22;8501;49.926;8.404;2023-04-23T04:30:13;12.90;99.90
16767;DHT22;8501;49.926;8.404;2023-04-23T04:32:39;13.00;99.90
16767;DHT22;8501;49.926;8.404;2023-04-23T04:35:06;13.00;99.90
16767;DHT22;8501;49.926;8.404;2023-04-23T04:37:37;13.00;99.90
16767;DHT22;8501;49.926;8.404;2023-04-23T04:40:03;13.00;99.90
16767;DHT22;8501;49.926;8.404;2023-04-23T04:42:29;13.00;99.90
16767;DHT22;8501;49.926;8.404;2023-04-23T04:44:55;12.90;99.90
16767;DHT22;8501;49.926;8.404;2023-04-23T04:47:24;12.90;99.90
16767;DHT22;8501;49.926;8.404;2023-04-23T04:49:49;13.00;99.90
16767;DHT22;8501;49.926;8.404;2023-04-23T04:52:15;12.90;99.90
16767;DHT22;8501;49.926;8.404;2023-04-23T04:54:41;12.90;99.90
16767;DHT22;8501;49.926;8.404;2023-04-23T04:57:07;12.90;99.90
16767;DHT22;8501;49.926;8.404;2023-04-23T04:59:32;12.80;99.90
16767;DHT22;8501;49.926;8.404;2023-04-23T05:01:58;12.80;99.90
16767;DHT22;8501;49.926;8.404;2023-04-23T05:04:24;12.80;99.90
16767;DHT22;8501;49.926;8.404;2023-04-23T05:06:49;12.80;99.90
16767;DHT22;8501;49.926;8.404;2023-04-23T05:09:15;12.80;99.90
16767;DHT22;8501;49.926;8.404;2023-04-23T05:11:41;12.90;99.90
16767;DHT22;8501;49.926;8.404;2023-04-23T05:14:07;12.90;99.90
16767;DHT22;8501;49.926;8.404;2023-04-23T05:16:33;12.90;99.90
16767;DHT22;8501;49.926;8.404;2023-04-23T05:18:58;12.90;99.90
16767;DHT22;8501;49.926;8.404;2023-04-23T05:21:24;12.90;99.90
16767;DHT22;8501;49.926;8.404;2023-04-23T05:23:52;12.90;99.90
16767;DHT22;8501;49.926;8.404;2023-04-23T05:26:19;12.90;99.90
16767;DHT22;8501;49.926;8.404;2023-04-23T05:28:45;12.90;99.90
16767;DHT22;8501;49.926;8.404;2023-04-23T05:31:10;12.90;99.90
16767;DHT22;8501;49.926;8.404;2023-04-23T05:33:36;12.90;99.90
16767;DHT22;8501;49.926;8.404;2023-04-23T05:36:02;12.80;99.90
16767;DHT22;8501;49.926;8.404;2023-04-23T05:38:27;12.80;99.90
16767;DHT22;8501;49.926;8.404;2023-04-23T05:40:53;12.80;99.90
16767;DHT22;8501;49.926;8.404;2023-04-23T05:43:18;12.80;99.90
16767;DHT22;8501;49.926;8.404;2023-04-23T05:45:44;12.80;99.90
16767;DHT22;8501;49.926;8.404;2023-04-23T05:48:10;12.80;99.90
16767;DHT22;8501;49.926;8.404;2023-04-23T05:50:35;12.90;99.90
16767;DHT22;8501;49.926;8.404;2023-04-23T05:53:01;12.90;99.90
16767;DHT22;8501;49.926;8.404;2023-04-23T05:55:28;12.90;99.90
16767;DHT22;8501;49.926;8.404;2023-04-23T05:57:53;12.90;99.90
16767;DHT22;8501;49.926;8.404;2023-04-23T06:00:19;12.90;99.90
16767;DHT22;8501;49.926;8.404;2023-04-23T06:02:45;12.90;99.90
16767;DHT22;8501;49.926;8.404;2023-04-23T06:05:10;13.00;99.90
16767;DHT22;8501;49.926;8.404;2023-04-23T06:07:36;12.90;99.90
16767;DHT22;8501;49.926;8.404;2023-04-23T06:10:03;13.00;99.90
16767;DHT22;8501;49.926;8.404;2023-04-23T06:12:29;13.00;99.90
16767;DHT22;8501;49.926;8.404;2023-04-23T06:14:55;13.00;99.90
16767;DHT22;8501;49.926;8.404;2023-04-23T06:17:20;13.00;99.90
16767;DHT22;8501;49.926;8.404;2023-04-23T06:19:46;13.00;99.90
16767;DHT22;8501;49.926;8.404;2023-04-23T06:22:11;13.10;99.90
16767;DHT22;8501;49.926;8.404;2023-04-23T06:24:37;13.10;99.90
16767;DHT22;8501;49.926;8.404;2023-04-23T06:27:03;13.20;99.90
16767;DHT22;8501;49.926;8.404;2023-04-23T06:29:28;13.20;99.90
16767;DHT22;8501;49.926;8.404;2023-04-23T06:31:54;13.20;99.90
16767;DHT22;8501;49.926;8.404;2023-04-23T06:34:20;13.30;99.90
16767;DHT22;8501;49.926;8.404;2023-04-23T06:36:46;13.30;99.90
16767;DHT22;8501;49.926;8.404;2023-04-23T06:39:12;13.40;99.90
16767;DHT22;8501;49.926;8.404;2023-04-23T06:41:37;13.40;99.90
16767;DHT22;8501;49.926;8.404;2023-04-23T06:44:03;13.40;99.90
16767;DHT22;8501;49.926;8.404;2023-04-23T06:46:28;13.40;99.90
16767;DHT22;8501;49.926;8.404;2023-04-23T06:48:54;13.50;99.90
16767;DHT22;8501;49.926;8.404;2023-04-23T06:51:20;13.50;99.90
16767;DHT22;8501;49.926;8.404;2023-04-23T06:53:46;13.60;99.90
16767;DHT22;8501;49.926;8.404;2023-04-23T06:56:11;13.60;99.90
16767;DHT22;8501;49.926;8.404;2023-04-23T06:58:37;13.60;99.90
16767;DHT22;8501;49.926;8.404;2023-04-23T07:01:03;13.70;99.90
16767;DHT22;8501;49.926;8.404;2023-04-23T07:03:32;13.70;99.90
16767;DHT22;8501;49.926;8.404;2023-04-23T07:05:57;13.70;99.90
16767;DHT22;8501;49.926;8.404;2023-04-23T07:08:23;13.90;99.90
16767;DHT22;8501;49.926;8.404;2023-04-23T07:10:48;13.90;99.90
16767;DHT22;8501;49.926;8.404;2023-04-23T07:13:14;13.90;99.90
16767;DHT22;8501;49.926;8.404;2023-04-23T07:15:40;13.90;99.90
16767;DHT22;8501;49.926;8.404;2023-04-23T07:18:07;14.00;99.90
16767;DHT22;8501;49.926;8.404;2023-04-23T07:20:33;14.10;99.90
16767;DHT22;8501;49.926;8.404;2023-04-23T07:22:58;14.10;99.90
16767;DHT22;8501;49.926;8.404;2023-04-23T07:25:24;14.10;99.90
16767;DHT22;8501;49.926;8.404;2023-04-23T07:27:51;14.10;99.90
16767;DHT22;8501;49.926;8.404;2023-04-23T07:30:18;14.10;99.90
16767;DHT22;8501;49.926;8.404;2023-04-23T07:32:44;14.20;99.90
16767;DHT22;8501;49.926;8.404;2023-04-23T07:35:10;14.20;99.90
16767;DHT22;8501;49.926;8.404;2023-04-23T07:37:36;14.30;99.90
16767;DHT22;8501;49.926;8.404;2023-04-23T07:40:02;14.30;99.90
16767;DHT22;8501;49.926;8.404;2023-04-23T07:42:30;14.40;99.90
16767;DHT22;8501;49.926;8.404;2023-04-23T07:44:56;14.30;99.90
16767;DHT22;8501;49.926;8.404;2023-04-23T07:47:22;14.40;99.90
16767;DHT22;8501;49.926;8.404;2023-04-23T07:49:47;14.40;99.90
16767;DHT22;8501;49.926;8.404;2023-04-23T07:52:13;14.40;99.90
16767;DHT22;8501;49.926;8.404;2023-04-23T07:54:39;14.40;99.90
16767;DHT22;8501;49.926;8.404;2023-04-23T07:57:05;14.50;99.90
16767;DHT22;8501;49.926;8.404;2023-04-23T07:59:30;14.50;99.90
16767;DHT22;8501;49.926;8.404;2023-04-23T08:01:56;14.50;99.90
16767;DHT22;8501;49.926;8.404;2023-04-23T08:04:21;14.60;99.90
16767;DHT22;8501;49.926;8.404;2023-04-23T08:06:47;14.60;99.90
16767;DHT22;8501;49.926;8.404;2023-04-23T08:09:12;14.70;99.90
16767;DHT22;8501;49.926;8.404;2023-04-23T08:11:39;14.70;99.90
16767;DHT22;8501;49.926;8.404;2023-04-23T08:14:04;14.80;99.90
16767;DHT22;8501;49.926;8.404;2023-04-23T08:16:30;14.80;99.90
16767;DHT22;8501;49.926;8.404;2023-04-23T08:18:56;14.90;99.90
16767;DHT22;8501;49.926;8.404;2023-04-23T08:21:22;14.90;99.90
16767;DHT22;8501;49.926;8.404;2023-04-23T08:23:49;15.00;99.90
16767;DHT22;8501;49.926;8.404;2023-04-23T08:26:15;15.10;99.90
16767;DHT22;8501;49.926;8.404;2023-04-23T08:28:41;15.10;99.90
16767;DHT22;8501;49.926;8.404;2023-04-23T08:31:07;15.10;99.90
16767;DHT22;8501;49.926;8.404;2023-04-23T08:33:32;15.10;99.90
16767;DHT22;8501;49.926;8.404;2023-04-23T08:35:58;15.20;99.90
16767;DHT22;8501;49.926;8.404;2023-04-23T08:38:23;15.20;99.90
16767;DHT22;8501;49.926;8.404;2023-04-23T08:40:55;15.20;99.90
16767;DHT22;8501;49.926;8.404;2023-04-23T08:43:27;15.10;99.90
16767;DHT22;8501;49.926;8.404;2023-04-23T08:46:00;15.20;99.90
16767;DHT22;8501;49.926;8.404;2023-04-23T08:48:29;15.10;99.90
16767;DHT22;8501;49.926;8.404;2023-04-23T08:50:56;15.20;99.90
16767;DHT22;8501;49.926;8.404;2023-04-23T08:53:25;15.20;99.90
16767;DHT22;8501;49.926;8.404;2023-04-23T08:55:53;15.20;99.90
16767;DHT22;8501;49.926;8.404;2023-04-23T08:58:20;15.10;99.90
16767;DHT22;8501;49.926;8.404;2023-04-23T09:00:47;15.10;99.90
16767;DHT22;8501;49.926;8.404;2023-04-23T09:03:17;15.10;99.90
16767;DHT22;8501;49.926;8.404;2023-04-23T09:05:43;15.10;99.90
16767;DHT22;8501;49.926;8.404;2023-04-23T09:08:09;15.10;99.90
16767;DHT22;8501;49.926;8.404;2023-04-23T09:10:36;15.10;99.90
16767;DHT22;8501;49.926;8.404;2023-04-23T09:13:03;15.10;99.90
16767;DHT22;8501;49.926;8.404;2023-04-23T09:15:29;15.10;99.90
16767;DHT22;8501;49.926;8.404;2023-04-23T09:17:56;15.20;99.90
16767;DHT22;8501;49.926;8.404;2023-04-23T09:20:22;15.30;99.90
16767;DHT22;8501;49.926;8.404;2023-04-23T09:22:49;15.30;99.90
16767;DHT22;8501;49.926;8.404;2023-04-23T09:25:17;15.40;99.90
16767;DHT22;8501;49.926;8.404;2023-04-23T09:27:44;15.50;99.90
16767;DHT22;8501;49.926;8.404;2023-04-23T09:30:11;15.70;99.90
16767;DHT22;8501;49.926;8.404;2023-04-23T09:32:38;15.80;99.90
16767;DHT22;8501;49.926;8.404;2023-04-23T09:35:06;15.90;99.90
16767;DHT22;8501;49.926;8.404;2023-04-23T09:37:33;15.90;99.90
16767;DHT22;8501;49.926;8.404;2023-04-23T09:40:04;15.90;99.90
16767;DHT22;8501;49.926;8.404;2023-04-23T09:42:32;16.00;99.90
16767;DHT22;8501;49.926;8.404;2023-04-23T09:45:10;16.20;99.90
16767;DHT22;8501;49.926;8.404;2023-04-23T09:47:40;16.40;99.90
16767;DHT22;8501;49.926;8.404;2023-04-23T09:50:07;16.40;99.90
16767;DHT22;8501;49.926;8.404;2023-04-23T09:52:39;16.40;99.90
16767;DHT22;8501;49.926;8.404;2023-04-23T09:55:05;16.50;99.90
16767;DHT22;8501;49.926;8.404;2023-04-23T09:57:39;16.40;99.90
16767;DHT22;8501;49.926;8.404;2023-04-23T10:00:33;16.40;99.90
16767;DHT22;8501;49.926;8.404;2023-04-23T10:02:59;16.30;99.90
16767;DHT22;8501;49.926;8.404;2023-04-23T10:05:25;16.20;99.90
16767;DHT22;8501;49.926;8.404;2023-04-23T10:07:52;16.20;99.90
16767;DHT22;8501;49.926;8.404;2023-04-23T10:10:18;16.20;99.90
16767;DHT22;8501;49.926;8.404;2023-04-23T10:12:45;16.10;99.90
16767;DHT22;8501;49.926;8.404;2023-04-23T10:15:12;16.10;99.90
16767;DHT22;8501;49.926;8.404;2023-04-23T10:17:40;16.10;99.90
16767;DHT22;8501;49.926;8.404;2023-04-23T10:20:06;16.20;99.90
16767;DHT22;8501;49.926;8.404;2023-04-23T10:22:34;16.30;99.90
16767;DHT22;8501;49.926;8.404;2023-04-23T10:25:03;16.40;99.90
16767;DHT22;8501;49.926;8.404;2023-04-23T10:27:31;16.50;99.90
16767;DHT22;8501;49.926;8.404;2023-04-23T10:29:58;16.60;99.90
16767;DHT22;8501;49.926;8.404;2023-04-23T10:32:26;16.60;99.90
16767;DHT22;8501;49.926;8.404;2023-04-23T10:34:52;16.70;99.90
16767;DHT22;8501;49.926;8.404;2023-04-23T10:37:18;16.80;99.90
16767;DHT22;8501;49.926;8.404;2023-04-23T10:39:48;16.90;99.90
16767;DHT22;8501;49.926;8.404;2023-04-23T10:42:15;17.00;99.90
16767;DHT22;8501;49.926;8.404;2023-04-23T10:44:42;17.00;99.90
16767;DHT22;8501;49.926;8.404;2023-04-23T10:47:13;17.20;99.90
16767;DHT22;8501;49.926;8.404;2023-04-23T10:49:39;17.20;99.90
16767;DHT22;8501;49.926;8.404;2023-04-23T10:52:16;17.10;99.90
16767;DHT22;8501;49.926;8.404;2023-04-23T10:55:19;17.10;99.90
16767;DHT22;8501;49.926;8.404;2023-04-23T10:58:03;17.10;99.90
16767;DHT22;8501;49.926;8.404;2023-04-23T11:03:29;17.10;99.90
16767;DHT22;8501;49.926;8.404;2023-04-23T11:05:57;17.10;99.90
16767;DHT22;8501;49.926;8.404;2023-04-23T11:08:22;17.10;99.90
16767;DHT22;8501;49.926;8.404;2023-04-23T11:10:55;17.00;99.90
16767;DHT22;8501;49.926;8.404;2023-04-23T11:13:22;17.00;99.90
16767;DHT22;8501;49.926;8.404;2023-04-23T11:16:12;17.00;99.90
16767;DHT22;8501;49.926;8.404;2023-04-23T11:18:58;17.10;99.90
16767;DHT22;8501;49.926;8.404;2023-04-23T11:27:04;16.90;99.90
16767;DHT22;8501;49.926;8.404;2023-04-23T11:29:30;16.90;99.90
16767;DHT22;8501;49.926;8.404;2023-04-23T11:31:55;17.00;99.90
16767;DHT22;8501;49.926;8.404;2023-04-23T11:34:21;17.00;99.90
16767;DHT22;8501;49.926;8.404;2023-04-23T11:36:50;17.10;99.90
16767;DHT22;8501;49.926;8.404;2023-04-23T11:39:15;17.10;99.90
16767;DHT22;8501;49.926;8.404;2023-04-23T11:41:43;17.10;99.90
16767;DHT22;8501;49.926;8.404;2023-04-23T11:44:11;17.10;99.90
16767;DHT22;8501;49.926;8.404;2023-04-23T11:46:37;17.00;99.90
16767;DHT22;8501;49.926;8.404;2023-04-23T11:49:02;17.00;99.90
16767;DHT22;8501;49.926;8.404;2023-04-23T11:51:28;17.00;99.90
16767;DHT22;8501;49.926;8.404;2023-04-23T11:53:55;17.00;99.90
16767;DHT22;8501;49.926;8.404;2023-04-23T11:56:29;17.00;99.90
16767;DHT22;8501;49.926;8.404;2023-04-23T11:59:01;17.10;99.90
16767;DHT22;8501;49.926;8.404;2023-04-23T12:01:54;17.20;99.90
16767;DHT22;8501;49.926;8.404;2023-04-23T12:04:22;17.20;99.90
16767;DHT22;8501;49.926;8.404;2023-04-23T12:06:49;17.20;99.90
16767;DHT22;8501;49.926;8.404;2023-04-23T12:09:17;17.20;99.90
16767;DHT22;8501;49.926;8.404;2023-04-23T12:11:43;17.30;99.90
16767;DHT22;8501;49.926;8.404;2023-04-23T12:14:11;17.50;99.90
16767;DHT22;8501;49.926;8.404;2023-04-23T12:16:40;17.50;99.90
16767;DHT22;8501;49.926;8.404;2023-04-23T12:19:12;17.60;99.90
16767;DHT22;8501;49.926;8.404;2023-04-23T12:21:52;17.60;99.90
16767;DHT22;8501;49.926;8.404;2023-04-23T12:24:26;17.60;99.90
16767;DHT22;8501;49.926;8.404;2023-04-23T12:26:53;17.60;99.90
16767;DHT22;8501;49.926;8.404;2023-04-23T12:29:20;17.70;99.90
16767;DHT22;8501;49.926;8.404;2023-04-23T12:31:48;17.80;99.90
16767;DHT22;8501;49.926;8.404;2023-04-23T12:34:14;17.90;99.90
16767;DHT22;8501;49.926;8.404;2023-04-23T12:36:54;17.90;99.90
16767;DHT22;8501;49.926;8.404;2023-04-23T12:41:46;18.10;99.90
16767;DHT22;8501;49.926;8.404;2023-04-23T12:44:11;18.30;99.90
16767;DHT22;8501;49.926;8.404;2023-04-23T12:46:37;18.30;99.90
16767;DHT22;8501;49.926;8.404;2023-04-23T12:49:02;18.40;99.90
16767;DHT22;8501;49.926;8.404;2023-04-23T12:51:28;18.40;99.90
16767;DHT22;8501;49.926;8.404;2023-04-23T12:53:53;18.40;99.90
16767;DHT22;8501;49.926;8.404;2023-04-23T12:56:19;18.50;99.90
16767;DHT22;8501;49.926;8.404;2023-04-23T12:58:45;18.50;99.90
16767;DHT22;8501;49.926;8.404;2023-04-23T13:01:10;18.50;99.90
16767;DHT22;8501;49.926;8.404;2023-04-23T13:03:38;18.40;99.90
16767;DHT22;8501;49.926;8.404;2023-04-23T13:06:04;18.50;99.90
16767;DHT22;8501;49.926;8.404;2023-04-23T13:08:29;18.50;99.90
16767;DHT22;8501;49.926;8.404;2023-04-23T13:10:55;18.50;99.90
16767;DHT22;8501;49.926;8.404;2023-04-23T13:13:21;18.50;99.90
16767;DHT22;8501;49.926;8.404;2023-04-23T13:15:46;18.50;99.90
16767;DHT22;8501;49.926;8.404;2023-04-23T13:18:12;18.70;99.90
16767;DHT22;8501;49.926;8.404;2023-04-23T13:20:37;18.80;99.90
16767;DHT22;8501;49.926;8.404;2023-04-23T13:23:03;18.90;99.90
16767;DHT22;8501;49.926;8.404;2023-04-23T13:25:28;19.00;99.90
16767;DHT22;8501;49.926;8.404;2023-04-23T13:27:54;19.10;99.90
16767;DHT22;8501;49.926;8.404;2023-04-23T13:30:20;19.00;99.90
16767;DHT22;8501;49.926;8.404;2023-04-23T13:32:46;19.10;99.90
16767;DHT22;8501;49.926;8.404;2023-04-23T13:35:11;19.20;99.90
16767;DHT22;8501;49.926;8.404;2023-04-23T13:37:38;19.30;99.90
16767;DHT22;8501;49.926;8.404;2023-04-23T13:40:06;19.20;99.90
16767;DHT22;8501;49.926;8.404;2023-04-23T13:42:32;19.10;99.90
16767;DHT22;8501;49.926;8.404;2023-04-23T13:44:58;19.10;99.90
16767;DHT22;8501;49.926;8.404;2023-04-23T13:47:24;19.10;99.90
16767;DHT22;8501;49.926;8.404;2023-04-23T13:49:51;19.20;99.90
16767;DHT22;8501;49.926;8.404;2023-04-23T13:52:17;19.30;99.90
16767;DHT22;8501;49.926;8.404;2023-04-23T13:54:42;19.50;99.90
16767;DHT22;8501;49.926;8.404;2023-04-23T13:57:08;19.70;99.90
16767;DHT22;8501;49.926;8.404;2023-04-23T13:59:34;19.80;99.90
16767;DHT22;8501;49.926;8.404;2023-04-23T14:02:00;19.70;99.90
16767;DHT22;8501;49.926;8.404;2023-04-23T14:18:09;20.20;99.90
16767;DHT22;8501;49.926;8.404;2023-04-23T14:27:14;20.40;99.90
16767;DHT22;8501;49.926;8.404;2023-04-23T14:29:44;20.30;99.90
16767;DHT22;8501;49.926;8.404;2023-04-23T14:32:11;20.20;99.90
16767;DHT22;8501;49.926;8.404;2023-04-23T14:34:37;20.10;99.90
16767;DHT22;8501;49.926;8.404;2023-04-23T14:37:03;20.00;99.90
16767;DHT22;8501;49.926;8.404;2023-04-23T14:57:14;19.50;99.90
16767;DHT22;8501;49.926;8.404;2023-04-23T14:59:40;19.40;99.90
16767;DHT22;8501;49.926;8.404;2023-04-23T15:02:06;19.40;99.90
16767;DHT22;8501;49.926;8.404;2023-04-23T15:04:33;19.30;99.90
16767;DHT22;8501;49.926;8.404;2023-04-23T15:06:59;19.30;99.90
16767;DHT22;8501;49.926;8.404;2023-04-23T15:09:24;19.20;99.90
16767;DHT22;8501;49.926;8.404;2023-04-23T15:11:50;19.20;99.90
16767;DHT22;8501;49.926;8.404;2023-04-23T15:14:19;19.10;99.90
16767;DHT22;8501;49.926;8.404;2023-04-23T15:16:58;19.00;99.90
16767;DHT22;8501;49.926;8.404;2023-04-23T15:26:08;18.90;99.90
16767;DHT22;8501;49.926;8.404;2023-04-23T15:28:38;18.90;99.90
16767;DHT22;8501;49.926;8.404;2023-04-23T15:31:08;18.90;99.90
16767;DHT22;8501;49.926;8.404;2023-04-23T15:33:36;18.90;99.90
16767;DHT22;8501;49.926;8.404;2023-04-23T15:36:02;18.90;99.90
16767;DHT22;8501;49.926;8.404;2023-04-23T15:38:28;18.80;99.90
16767;DHT22;8501;49.926;8.404;2023-04-23T15:40:56;18.80;99.90
16767;DHT22;8501;49.926;8.404;2023-04-23T15:43:22;18.70;99.90
16767;DHT22;8501;49.926;8.404;2023-04-23T15:45:47;18.70;99.90
16767;DHT22;8501;49.926;8.404;2023-04-23T15:48:14;18.70;99.90
16767;DHT22;8501;49.926;8.404;2023-04-23T15:50:41;18.70;99.90
16767;DHT22;8501;49.926;8.404;2023-04-23T15:53:06;18.70;99.90
16767;DHT22;8501;49.926;8.404;2023-04-23T15:55:32;18.70;99.90
16767;DHT22;8501;49.926;8.404;2023-04-23T16:13:47;18.10;99.90
16767;DHT22;8501;49.926;8.404;2023-04-23T16:16:13;17.90;99.90
16767;DHT22;8501;49.926;8.404;2023-04-23T16:18:38;17.70;99.90
16767;DHT22;8501;49.926;8.404;2023-04-23T16:21:04;17.70;99.90
16767;DHT22;8501;49.926;8.404;2023-04-23T16:23:30;17.40;99.90
16767;DHT22;8501;49.926;8.404;2023-04-23T16:25:56;17.00;99.90
16767;DHT22;8501;49.926;8.404;2023-04-23T16:28:22;16.80;99.90
16767;DHT22;8501;49.926;8.404;2023-04-23T16:30:47;16.70;99.90
16767;DHT22;8501;49.926;8.404;2023-04-23T16:33:13;16.60;99.90
16767;DHT22;8501;49.926;8.404;2023-04-23T16:35:38;16.60;99.90
16767;DHT22;8501;49.926;8.404;2023-04-23T16:38:04;16.50;99.90
16767;DHT22;8501;49.926;8.404;2023-04-23T16:40:30;16.40;99.90
16767;DHT22;8501;49.926;8.404;2023-04-23T16:42:55;16.50;99.90
16767;DHT22;8501;49.926;8.404;2023-04-23T16:45:21;16.40;99.90
16767;DHT22;8501;49.926;8.404;2023-04-23T16:47:51;16.40;99.90
16767;DHT22;8501;49.926;8.404;2023-04-23T16:50:17;16.30;99.90
16767;DHT22;8501;49.926;8.404;2023-04-23T16:52:42;16.30;99.90
16767;DHT22;8501;49.926;8.404;2023-04-23T16:55:08;16.30;99.90